Huvudsida
METAR-TAF:

METAR-TAF

Flygplatser :

Seinäjoki flygplats

Seinäjoki-Ilmola, Finland

latitud: 62-41-37N, longitud: 022-49-55E, höjd: 91 m

Aktuellt väderrapport

Denna rapport gjordes för 23 minuter sedan, klockan 08:20 UTC
Vind 7 kt från nordväst, varierande mellan väst och nord
Temperatur 10°C
Fuktighet 43%
Tryck 1020 hPa
Sikt 10 km eller mer
Inga moln under 1 500 m eller inga cumulonimbus

METAR: EFSI 200820Z AUTO 32007KT 280V350 CAVOK 10/M02 Q1020

Tid: 11:43 (08:43 UTC)

Väderprognos

Denna rapport gjordes för 3 timmar och 14 minuter sedan, klockan 05:29 UTC
Prognos gäller från 20 kl. 06 UTC till 20 kl. 15 UTC
Vind 7 kt från nordväst
Sikt 10 km eller mer
Inga moln under 1 500 m eller inga cumulonimbus

TAF: EFSI 200529Z 2006/2015 32007KT CAVOK

Aktuella väderrapporter och prognoser från 4000 flygplatser (METAR- och TAF-rapporter).

De tillgängliga stationerna syns som gula och röda prickar på kartan.

För musen över prickarna för att se namnen på stationerna.

Klicka sedan för att få väderrapporter och prognoser.

För att ändra kartan: Klicka på de gröna knapparna med ett svart kors på för att zooma in; den gröna knappen med ett streck på för att zooma ut; eller på de gröna pilarna för angränsande kartor.


METAR-TAF: